ADDS METAR Data INFO
IDs: Format: Raw Decoded Include TAF

Data at: 1513 UTC 22 Jun 2018

K2F5 221455Z AUTO 20016G22KT 10SM CLR 28/17 A3002 RMK AO2
K2F5 221435Z AUTO 19013G20KT 10SM CLR 28/18 A3002 RMK AO2
K2F5 221415Z AUTO 20013G20KT 10SM CLR 27/18 A3002 RMK AO2
K2F5 221355Z AUTO 21012G19KT 10SM CLR 26/18 A3002 RMK AO2
K2F5 221335Z AUTO 21013G20KT 10SM CLR 25/18 A3001 RMK AO2
K2F5 221315Z AUTO 21015KT 10SM CLR 24/18 A3000 RMK AO2
K2F5 221255Z AUTO 21015KT 10SM CLR 24/18 A2999 RMK AO2
K2F5 221235Z AUTO 20013G18KT 10SM CLR 23/18 A2998 RMK AO2
K2F5 221215Z AUTO 20016KT 10SM CLR 23/18 A2997 RMK AO2
K2F5 221155Z AUTO 20016KT 10SM CLR 23/18 A2997 RMK AO2
K2F5 221135Z AUTO 20016KT 10SM CLR 23/18 A2997 RMK AO2
K2F5 221115Z AUTO 20013G18KT 10SM CLR 22/17 A2997 RMK AO2
K2F5 221055Z AUTO 20008KT 150V210 10SM CLR 22/17 A2997 RMK AO2
K2F5 221035Z AUTO 17007KT 140V210 10SM CLR 22/16 A2996 RMK AO2
K2F5 221015Z AUTO 21008KT 10SM CLR 22/16 A2995 RMK AO2
K2F5 220955Z AUTO 21008KT 10SM CLR 23/16 A2995 RMK AO2
K2F5 220935Z AUTO 21009KT 10SM CLR 23/15 A2995 RMK AO2
K2F5 220915Z AUTO 21008KT 10SM CLR 24/15 A2995 RMK AO2
K2F5 220855Z AUTO 19010KT 10SM CLR 24/14 A2995 RMK AO2
K2F5 220835Z AUTO 19010KT 10SM CLR 25/14 A2994 RMK AO2
K2F5 220815Z AUTO 18013KT 10SM CLR 26/14 A2994 RMK AO2
K2F5 220755Z AUTO 19009KT 10SM CLR 25/14 A2994 RMK AO2
K2F5 220735Z AUTO 18008KT 10SM CLR 25/14 A2995 RMK AO2
K2F5 220715Z AUTO 19010KT 10SM CLR 26/14 A2995 RMK AO2
K2F5 220655Z AUTO 19011KT 10SM CLR 26/14 A2996 RMK AO2
K2F5 220635Z AUTO 19010KT 10SM CLR 26/14 A2996 RMK AO2
K2F5 220615Z AUTO 19010KT 10SM CLR 27/14 A2997 RMK AO2
K2F5 220555Z AUTO 19009KT 10SM CLR 26/14 A2997 RMK AO2
K2F5 220535Z AUTO 18010KT 10SM CLR 28/14 A2998 RMK AO2
K2F5 220515Z AUTO 18014KT 10SM CLR 28/14 A2999 RMK AO2
K2F5 220455Z AUTO 19014KT 10SM CLR 28/14 A2999 RMK AO2
K2F5 220435Z AUTO 19015KT 10SM CLR 28/15 A2999 RMK AO2
K2F5 220415Z AUTO 19008KT 10SM CLR 28/16 A3000 RMK AO2
K2F5 220355Z AUTO 20007KT 10SM CLR 28/16 A3000 RMK AO2
K2F5 220335Z AUTO 21006KT 10SM CLR 29/15 A2999 RMK AO2
K2F5 220315Z AUTO 22005KT 10SM CLR 29/15 A2999 RMK AO2
K2F5 220255Z AUTO 21004KT 10SM CLR 30/14 A2998 RMK AO2
K2F5 220235Z AUTO 21004KT 10SM CLR 30/15 A2998 RMK AO2
K2F5 220215Z AUTO 19004KT 10SM CLR 30/14 A2998 RMK AO2
K2F5 220155Z AUTO 15006KT 10SM CLR 31/14 A2998 RMK AO2
K2F5 220135Z AUTO 13008KT 10SM SCT085 32/14 A2997 RMK AO2
K2F5 220115Z AUTO 14007KT 10SM SCT085 33/14 A2997 RMK AO2
K2F5 220055Z AUTO 21008KT 10SM SCT085 34/14 A2996 RMK AO2
K2F5 220035Z AUTO 23007KT 160V280 10SM SCT085 34/14 A2997 RMK AO2
K2F5 220015Z AUTO 36006KT 10SM CLR 34/15 A2997 RMK AO2
K2F5 212355Z AUTO 28008KT 10SM CLR 34/14 A2997 RMK AO2
K2F5 212335Z AUTO 24007KT 230V300 10SM CLR 35/15 A2997 RMK AO2
K2F5 212315Z AUTO 35007KT 200V110 10SM CLR 34/14 A2998 RMK AO2
K2F5 212255Z AUTO 34004KT 10SM CLR 35/14 A2998 RMK AO2
K2F5 212235Z AUTO 12005KT 10SM CLR 34/14 A2999 RMK AO2
K2F5 212215Z AUTO 01005KT 10SM CLR 34/15 A2999 RMK AO2
K2F5 212155Z AUTO 14008KT 120V220 10SM CLR 35/15 A3000 RMK AO2
K2F5 212135Z AUTO 10003KT 10SM SCT075 33/15 A3001 RMK AO2
K2F5 212115Z AUTO 00000KT 10SM SCT075 34/16 A3001 RMK AO2
K2F5 212055Z AUTO 18003KT 10SM SCT070 34/16 A3002 RMK AO2
K2F5 212035Z AUTO 24003KT 10SM BKN070 33/16 A3003 RMK AO2
K2F5 212015Z AUTO 16005KT 10SM BKN070 33/16 A3003 RMK AO2
K2F5 211955Z AUTO 00000KT 7SM HZ CLR 33/16 A3004 RMK AO2
K2F5 211935Z AUTO 26005KT 10SM SCT060 33/16 A3004 RMK AO2
K2F5 211915Z AUTO 20006KT 10SM BKN060 33/16 A3005 RMK AO2
K2F5 211855Z AUTO 19008KT 160V220 10SM CLR 31/16 A3006 RMK AO2
K2F5 211835Z AUTO 11009KT 10SM SCT060 SCT070 32/17 A3007 RMK AO2
K2F5 211815Z AUTO 11010KT 10SM BKN060 BKN070 31/18 A3007 RMK AO2
K2F5 211755Z AUTO 07006KT 10SM SCT060 31/17 A3008 RMK AO2
K2F5 211735Z AUTO 11010G17KT 10SM CLR 30/17 A3008 RMK AO2
K2F5 211715Z AUTO 18008KT 120V210 10SM CLR 30/18 A3008 RMK AO2
K2F5 211655Z AUTO 10009KT 080V180 10SM CLR 30/18 A3009 RMK AO2
K2F5 211635Z AUTO 22006KT 10SM CLR 29/18 A3009 RMK AO2
K2F5 211615Z AUTO 23005KT 10SM CLR 29/19 A3010 RMK AO2
K2F5 211555Z AUTO 19005KT 10SM CLR 28/19 A3010 RMK AO2
K2F5 211535Z AUTO 15006KT 10SM CLR 28/19 A3010 RMK AO2
K2F5 211515Z AUTO 14006KT 10SM SCT065 27/19 A3010 RMK AO2
K2F5 211455Z AUTO 00000KT 10SM BKN065 BKN080 26/19 A3010 RMK AO2
K2F5 211435Z AUTO 12003KT 10SM BKN065 25/19 A3011 RMK AO2
K2F5 211355Z AUTO 15006KT 10SM CLR 25/18 A3010 RMK AO2
K2F5 211335Z AUTO 11005KT 10SM CLR 24/18 A3009 RMK AO2
K2F5 211315Z AUTO 12005KT 10SM CLR 24/17 A3009 RMK AO2
K2F5 211255Z AUTO 07005KT 10SM CLR 23/17 A3007 RMK AO2
K2F5 211235Z AUTO 07006KT 10SM CLR 22/17 A3007 RMK AO2
K2F5 211215Z AUTO 06005KT 10SM CLR 22/17 A3007 RMK AO2
K2F5 211155Z AUTO 07006KT 10SM CLR 21/17 A3006 RMK AO2
K2F5 211135Z AUTO 07007KT 10SM CLR 21/16 A3005 RMK AO2
K2F5 211115Z AUTO 07007KT 10SM CLR 21/16 A3005 RMK AO2
K2F5 211055Z AUTO 08008KT 10SM CLR 22/16 A3004 RMK AO2
K2F5 211035Z AUTO 08008KT 10SM CLR 22/16 A3004 RMK AO2
K2F5 211015Z AUTO 07007KT 10SM CLR 22/16 A3004 RMK AO2
K2F5 210955Z AUTO 07009KT 10SM CLR 22/16 A3003 RMK AO2
K2F5 210935Z AUTO 08008KT 10SM CLR 22/16 A3003 RMK AO2
K2F5 210915Z AUTO 08007KT 10SM CLR 23/17 A3003 RMK AO2
K2F5 210855Z AUTO 07007KT 10SM CLR 23/17 A3002 RMK AO2
K2F5 210835Z AUTO 07008KT 10SM CLR 23/17 A3001 RMK AO2
K2F5 210815Z AUTO 07007KT 10SM CLR 23/17 A3001 RMK AO2
K2F5 210755Z AUTO 08007KT 10SM CLR 23/17 A3001 RMK AO2
K2F5 210735Z AUTO 08009KT 10SM CLR 24/17 A3001 RMK AO2
K2F5 210715Z AUTO 08010KT 10SM CLR 24/17 A3001 RMK AO2
K2F5 210655Z AUTO 07011KT 10SM CLR 24/17 A3001 RMK AO2
K2F5 210635Z AUTO 06009KT 10SM CLR 24/18 A3002 RMK AO2
K2F5 210615Z AUTO 07007KT 10SM CLR 25/18 A3002 RMK AO2
K2F5 210555Z AUTO 07006KT 10SM CLR 25/17 A3002 RMK AO2
K2F5 210535Z AUTO 08007KT 10SM CLR 25/17 A3002 RMK AO2
K2F5 210515Z AUTO 07007KT 10SM CLR 25/17 A3002 RMK AO2
K2F5 210455Z AUTO 07007KT 10SM CLR 26/17 A3002 RMK AO2
K2F5 210435Z AUTO 08008KT 10SM CLR 26/17 A3001 RMK AO2
K2F5 210415Z AUTO 09008KT 10SM CLR 26/17 A3001 RMK AO2
K2F5 210355Z AUTO 09007KT 10SM CLR 27/17 A3001 RMK AO2
K2F5 210335Z AUTO 08009KT 10SM CLR 27/17 A3000 RMK AO2
K2F5 210315Z AUTO 07010KT 10SM CLR 28/17 A2999 RMK AO2